Airfield :
LOGIN :

Register | Disclaimer

   EN    FR    IT 

 










Legend :    VFR   Marginal VFR   IFR   Intensive IFR   Very Intensive IFR
Visi :
Ceiling :
>= 8 km
>= 3000ft
5 to 8 km
1000 to 3000 ft
1500m to 5 km
500 to 1000 ft
800 to 1500m
200 to 500 ft
< 800m
< 200 ft
Symbols :   Thunderstorms  Fog  Heavy snow  Heavy precipitations  Wind > 20 kt
SIGMETs :     Misc.  Thunderstorms  Icing  Turbulence  Mountain Waves  Volcanic Ashes






- Airport Elevation : 147 ft
- IATA code : DUS


EDDL - Düsseldorf Int.

CURRENT METAR :
  • 180550Z 33005KT 3100 -DZ FEW003 BKN004 OVC006 05/05 Q1005 REDZ TEMPO 2500 BKN006

EXPIRED METARs :
  • 180520Z 34006KT 310V010 3500 -DZ FEW003 BKN004 OVC006 04/04 Q1005 REDZ TEMPO 2500 BKN006
  • 180450Z 31007KT 3200 DZ FEW003 BKN004 OVC006 04/04 Q1005 TEMPO 2500
  • 180420Z 32007KT 3500 DZ SCT004 BKN005 OVC007 04/04 Q1005 TEMPO 2500 BKN004
  • 180350Z 33007KT 5000 -DZ FEW004 OVC006 04/04 Q1005 TEMPO BKN004
  • 180320Z 33008KT 6000 -DZ SCT005 OVC007 04/04 Q1005 NOSIG

TAF TAF EDDL
Valid from the 18 at 06:00 until the 19 at 12:00 UTC


180500Z 1806/1912 32007KT 6000 SCT008 OVC012
TEMPO 1806/1811 VRB03KT 2000 -DZRA BKN004
BECMG 1811/1814 24010KT
TEMPO 1811/1822 3000 +DZRA BKN006
BECMG 1818/1821 25015KT
TEMPO 1900/1912 BKN020



MET'MAP, your aeronautical weather chart ! - Copyright ORBIFLY December 2007 - Disclaimer

ORBIFLY MET'MAP TEAM :

Programming & Development : Alexandra Zaïnal
Concept & Development : Baudouin d'Aumeries
Co-Development & Prog : Marc-Olivier Méhu
Technical & hardware support : Manuel Goepfert

Contact : metmap@orbifly.com




SOURCES & CREDITS :

   NOAA